createdAt,value
2018-12-13T00:00:20.766Z,4.83
2018-12-13T00:02:49.038Z,5.10
2018-12-13T00:05:14.673Z,4.60
2018-12-13T00:07:41.647Z,6.13
2018-12-13T00:10:08.587Z,5.50
2018-12-13T00:12:35.533Z,5.73
2018-12-13T00:15:02.501Z,5.80
2018-12-13T00:17:29.476Z,5.10
2018-12-13T00:19:56.421Z,5.63
2018-12-13T00:22:23.371Z,5.33
2018-12-13T00:24:50.348Z,5.57
2018-12-13T00:27:17.765Z,5.60
2018-12-13T00:29:44.723Z,5.77
2018-12-13T00:32:11.665Z,5.83
2018-12-13T00:34:38.611Z,5.50
2018-12-13T00:37:05.569Z,6.10
2018-12-13T00:39:32.509Z,5.30
2018-12-13T00:41:59.444Z,6.93
2018-12-13T00:44:26.397Z,5.13
2018-12-13T00:46:53.357Z,5.97
2018-12-13T00:49:20.311Z,6.00
2018-12-13T00:51:47.274Z,5.77
2018-12-13T00:54:14.227Z,5.33
2018-12-13T00:56:41.169Z,5.40
2018-12-13T00:59:08.111Z,6.27
2018-12-13T01:01:35.064Z,5.60
2018-12-13T01:04:02.026Z,7.03
2018-12-13T01:06:29.001Z,5.70
2018-12-13T01:08:55.945Z,6.00
2018-12-13T01:11:22.890Z,7.60
2018-12-13T01:13:49.836Z,5.50
2018-12-13T01:16:22.837Z,6.30
2018-12-13T01:18:49.952Z,6.70
2018-12-13T01:21:20.681Z,6.70
2018-12-13T01:23:43.888Z,5.73
2018-12-13T01:26:10.820Z,5.97
2018-12-13T01:28:38.109Z,6.03
2018-12-13T01:31:05.028Z,7.80
2018-12-13T01:33:31.977Z,6.23
2018-12-13T01:35:58.925Z,6.17
2018-12-13T01:38:25.878Z,5.87
2018-12-13T01:40:52.868Z,6.40
2018-12-13T01:43:19.837Z,6.73
2018-12-13T01:45:46.791Z,7.63
2018-12-13T01:48:13.739Z,7.57
2018-12-13T01:50:40.716Z,6.77
2018-12-13T01:53:07.668Z,8.27
2018-12-13T01:55:34.627Z,6.30
2018-12-13T01:58:01.588Z,6.40
2018-12-13T02:00:28.528Z,6.60
2018-12-13T02:02:55.467Z,6.80
2018-12-13T02:05:22.433Z,8.30
2018-12-13T02:07:49.365Z,8.23
2018-12-13T02:10:16.301Z,7.00
2018-12-13T02:12:43.259Z,7.00
2018-12-13T02:15:10.187Z,6.10
2018-12-13T02:17:37.157Z,7.30
2018-12-13T02:20:04.100Z,8.43
2018-12-13T02:22:31.049Z,6.50
2018-12-13T02:24:57.991Z,6.60
2018-12-13T02:27:24.949Z,6.70
2018-12-13T02:29:52.462Z,6.73
2018-12-13T02:32:19.403Z,6.17
2018-12-13T02:34:46.373Z,6.57
2018-12-13T02:37:13.309Z,9.30
2018-12-13T02:39:40.251Z,6.37
2018-12-13T02:42:07.208Z,6.87
2018-12-13T02:44:34.144Z,6.83
2018-12-13T02:47:01.079Z,7.47
2018-12-13T02:49:28.048Z,7.10
2018-12-13T02:51:54.987Z,7.07
2018-12-13T02:54:21.931Z,7.03
2018-12-13T02:56:48.899Z,6.27
2018-12-13T02:59:15.833Z,6.87
2018-12-13T03:01:42.789Z,6.93
2018-12-13T03:04:09.744Z,7.77
2018-12-13T03:06:36.720Z,7.30
2018-12-13T03:09:05.779Z,6.63
2018-12-13T03:11:32.740Z,7.83
2018-12-13T03:13:59.684Z,7.70
2018-12-13T03:16:26.652Z,6.30
2018-12-13T03:18:53.629Z,7.17
2018-12-13T03:21:20.586Z,7.30
2018-12-13T03:23:47.519Z,7.43
2018-12-13T03:26:14.465Z,8.67
2018-12-13T03:28:41.387Z,7.30
2018-12-13T03:31:08.712Z,8.20
2018-12-13T03:33:35.688Z,7.93
2018-12-13T03:36:02.635Z,7.63
2018-12-13T03:38:29.656Z,9.10
2018-12-13T03:40:56.541Z,7.63
2018-12-13T03:43:23.512Z,8.40
2018-12-13T03:45:50.498Z,7.73
2018-12-13T03:48:17.463Z,7.10
2018-12-13T03:50:44.412Z,7.50
2018-12-13T03:53:11.341Z,8.13
2018-12-13T03:55:38.316Z,9.83
2018-12-13T03:58:05.257Z,8.77
2018-12-13T04:00:32.200Z,8.80
2018-12-13T04:02:59.151Z,8.53
2018-12-13T04:05:26.100Z,9.50
2018-12-13T04:07:53.039Z,8.17
2018-12-13T04:10:20.009Z,7.53
2018-12-13T04:12:46.947Z,7.50
2018-12-13T04:15:13.885Z,7.63
2018-12-13T04:17:40.961Z,8.17
2018-12-13T04:20:07.904Z,8.93
2018-12-13T04:22:34.840Z,7.90
2018-12-13T04:25:01.822Z,7.93
2018-12-13T04:27:28.759Z,8.80
2018-12-13T04:29:55.696Z,8.87
2018-12-13T04:32:23.055Z,12.53
2018-12-13T04:34:49.985Z,10.67
2018-12-13T04:37:16.980Z,11.43
2018-12-13T04:39:43.920Z,8.27
2018-12-13T04:42:10.860Z,11.10
2018-12-13T04:44:37.999Z,9.63
2018-12-13T04:47:04.751Z,8.10
2018-12-13T04:49:31.699Z,7.40
2018-12-13T04:51:58.755Z,8.47
2018-12-13T04:54:25.635Z,7.77
2018-12-13T04:56:52.583Z,7.43
2018-12-13T04:59:19.535Z,9.33
2018-12-13T05:01:46.493Z,7.90
2018-12-13T05:04:13.427Z,8.00
2018-12-13T05:06:40.395Z,9.57
2018-12-13T05:09:07.704Z,7.77
2018-12-13T05:11:34.668Z,7.70
2018-12-13T05:14:01.615Z,7.57
2018-12-13T05:16:28.574Z,8.00
2018-12-13T05:18:55.521Z,8.40
2018-12-13T05:21:22.500Z,9.33
2018-12-13T05:23:49.481Z,9.37
2018-12-13T05:26:16.428Z,8.37
2018-12-13T05:28:43.380Z,7.40
2018-12-13T05:31:10.329Z,8.00
2018-12-13T05:33:37.755Z,8.80
2018-12-13T05:36:04.698Z,8.73
2018-12-13T05:38:31.665Z,7.43
2018-12-13T05:40:58.604Z,8.00
2018-12-13T05:43:25.959Z,8.13
2018-12-13T05:45:52.852Z,7.80
2018-12-13T05:48:19.785Z,7.80
2018-12-13T05:50:46.724Z,10.27
2018-12-13T05:53:13.710Z,8.90
2018-12-13T05:55:40.659Z,9.37
2018-12-13T05:58:07.610Z,9.23
2018-12-13T06:00:34.664Z,8.93
2018-12-13T06:03:01.623Z,14.40
2018-12-13T06:05:28.547Z,8.57
2018-12-13T06:07:55.516Z,9.77
2018-12-13T06:10:22.461Z,8.37
2018-12-13T06:12:49.412Z,9.93
2018-12-13T06:15:16.383Z,9.33
2018-12-13T06:17:43.659Z,9.37
2018-12-13T06:20:10.893Z,9.67
2018-12-13T06:22:37.896Z,10.67
2018-12-13T06:25:04.886Z,10.20
2018-12-13T06:27:31.850Z,8.87
2018-12-13T06:29:59.253Z,9.63
2018-12-13T06:32:25.779Z,10.23
2018-12-13T06:34:53.208Z,10.70
2018-12-13T06:37:20.180Z,12.07
2018-12-13T06:39:47.145Z,8.87
2018-12-13T06:42:14.092Z,8.80
2018-12-13T06:44:41.069Z,11.80
2018-12-13T06:47:08.091Z,9.80
2018-12-13T06:49:35.021Z,12.53
2018-12-13T06:52:01.972Z,10.00
2018-12-13T06:54:28.933Z,10.20
2018-12-13T06:56:55.881Z,11.10
2018-12-13T06:59:22.867Z,10.03
2018-12-13T07:01:49.804Z,9.33
2018-12-13T07:04:16.775Z,9.47
2018-12-13T07:06:43.739Z,10.63
2018-12-13T07:09:10.739Z,10.80
2018-12-13T07:11:37.692Z,14.47
2018-12-13T07:14:04.654Z,9.50
2018-12-13T07:16:31.600Z,11.23
2018-12-13T07:18:58.548Z,9.17
2018-12-13T07:21:25.520Z,9.77
2018-12-13T07:23:52.492Z,9.27
2018-12-13T07:26:19.457Z,11.43
2018-12-13T07:28:46.426Z,11.40
2018-12-13T07:31:13.360Z,9.77
2018-12-13T07:33:40.306Z,9.70
2018-12-13T07:36:07.632Z,12.90
2018-12-13T07:38:34.577Z,12.37
2018-12-13T07:41:01.516Z,11.47
2018-12-13T07:43:28.499Z,16.93
2018-12-13T07:45:55.447Z,13.03
2018-12-13T07:48:22.415Z,12.27
2018-12-13T07:50:49.390Z,10.97
2018-12-13T07:53:16.333Z,10.83
2018-12-13T07:55:43.325Z,10.90
2018-12-13T07:58:10.319Z,10.37
2018-12-13T08:00:37.237Z,9.43
2018-12-13T08:03:04.232Z,11.23
2018-12-13T08:05:31.235Z,10.53
2018-12-13T08:07:58.221Z,10.33
2018-12-13T08:10:25.271Z,10.77
2018-12-13T08:12:52.237Z,10.00
2018-12-13T08:15:19.201Z,11.17
2018-12-13T08:17:46.698Z,10.57
2018-12-13T08:20:13.121Z,13.90
2018-12-13T08:22:40.071Z,13.43
2018-12-13T08:25:07.029Z,10.47
2018-12-13T08:27:33.993Z,10.10
2018-12-13T08:32:35.972Z,8.63
2018-12-13T08:35:03.080Z,9.90
2018-12-13T08:37:30.391Z,9.13
2018-12-13T08:39:57.360Z,9.87
2018-12-13T08:42:24.356Z,10.00
2018-12-13T08:44:51.251Z,9.47
2018-12-13T08:47:18.245Z,9.90
2018-12-13T08:49:45.196Z,9.30
2018-12-13T08:52:12.143Z,10.47
2018-12-13T08:54:39.135Z,10.53
2018-12-13T08:57:06.108Z,10.13
2018-12-13T08:59:33.058Z,11.33
2018-12-13T09:02:00.037Z,10.07
2018-12-13T09:04:27.016Z,12.17
2018-12-13T09:06:54.074Z,11.77
2018-12-13T09:09:21.052Z,11.10
2018-12-13T09:11:48.027Z,12.67
2018-12-13T09:14:16.822Z,12.70
2018-12-13T09:16:43.789Z,12.83
2018-12-13T09:19:10.742Z,13.53
2018-12-13T09:21:37.710Z,13.10
2018-12-13T09:24:04.666Z,12.13
2018-12-13T09:26:31.627Z,11.93
2018-12-13T09:28:58.627Z,11.97
2018-12-13T09:31:25.600Z,12.23
2018-12-13T09:33:52.536Z,13.13
2018-12-13T09:36:19.513Z,13.80
2018-12-13T09:38:46.780Z,12.87
2018-12-13T09:41:13.727Z,12.37
2018-12-13T09:43:40.740Z,12.97
2018-12-13T09:46:07.707Z,13.13
2018-12-13T09:48:34.727Z,16.07
2018-12-13T09:51:01.722Z,18.03
2018-12-13T09:53:28.684Z,12.37
2018-12-13T09:55:55.668Z,13.93
2018-12-13T09:58:22.605Z,15.50
2018-12-13T10:00:49.580Z,15.13
2018-12-13T10:03:16.512Z,13.30
2018-12-13T10:05:43.546Z,14.20
2018-12-13T10:08:10.517Z,14.93
2018-12-13T10:10:37.510Z,13.90
2018-12-13T10:13:04.470Z,15.23
2018-12-13T10:15:32.124Z,13.97
2018-12-13T10:17:58.420Z,14.60
2018-12-13T10:20:25.362Z,13.63
2018-12-13T10:22:52.349Z,16.40
2018-12-13T10:25:19.375Z,14.90
2018-12-13T10:27:46.325Z,15.70
2018-12-13T10:30:13.293Z,13.90
2018-12-13T10:32:40.336Z,16.90
2018-12-13T10:35:11.279Z,15.17
2018-12-13T10:37:34.193Z,13.53
2018-12-13T10:40:01.462Z,15.60
2018-12-13T10:42:28.425Z,14.43
2018-12-13T10:44:55.480Z,13.80
2018-12-13T10:47:22.499Z,15.57
2018-12-13T10:49:49.440Z,13.90
2018-12-13T10:52:16.413Z,12.73
2018-12-13T10:54:43.354Z,14.47
2018-12-13T10:57:10.327Z,17.50
2018-12-13T10:59:37.303Z,14.60
2018-12-13T11:02:23.857Z,13.30
2018-12-13T11:04:50.879Z,16.10
2018-12-13T11:07:17.831Z,14.33
2018-12-13T11:09:44.843Z,15.13
2018-12-13T11:12:11.840Z,15.93
2018-12-13T11:14:38.997Z,15.37
2018-12-13T11:17:05.973Z,16.97
2018-12-13T11:19:33.072Z,15.43
2018-12-13T11:22:01.597Z,13.80
2018-12-13T11:24:28.611Z,15.83
2018-12-13T11:27:17.495Z,16.07
2018-12-13T11:29:56.190Z,16.13
2018-12-13T11:32:23.517Z,18.00
2018-12-13T11:34:50.485Z,14.77
2018-12-13T11:37:17.439Z,14.47
2018-12-13T11:39:44.428Z,16.03
2018-12-13T11:42:11.731Z,15.73
2018-12-13T11:44:38.761Z,16.33
2018-12-13T11:47:05.763Z,15.53
2018-12-13T11:49:32.718Z,15.73
2018-12-13T11:51:59.667Z,16.00
2018-12-13T11:54:39.003Z,17.57
2018-12-13T11:57:05.984Z,16.03
2018-12-13T11:59:32.929Z,14.63
2018-12-13T12:01:59.971Z,15.57
2018-12-13T12:04:26.937Z,17.37
2018-12-13T12:06:54.076Z,17.13
2018-12-13T12:09:21.100Z,19.73
2018-12-13T12:11:48.746Z,17.67
2018-12-13T12:14:15.744Z,16.10
2018-12-13T12:16:42.787Z,28.90
2018-12-13T12:19:09.757Z,20.20
2018-12-13T12:21:36.708Z,18.73
2018-12-13T12:24:03.727Z,19.23
2018-12-13T12:26:30.699Z,18.10
2018-12-13T12:28:57.656Z,19.20
2018-12-13T12:31:24.644Z,19.07
2018-12-13T12:33:51.628Z,17.70
2018-12-13T12:36:18.561Z,16.83
2018-12-13T12:38:45.636Z,19.53
2018-12-13T12:41:12.585Z,17.30
2018-12-13T12:43:39.858Z,18.60
2018-12-13T12:46:06.807Z,16.97
2018-12-13T12:48:33.756Z,17.20
2018-12-13T12:51:00.724Z,21.50
2018-12-13T12:53:27.798Z,21.77
2018-12-13T12:55:54.761Z,19.20
2018-12-13T12:58:21.701Z,18.93
2018-12-13T13:00:48.724Z,19.53
2018-12-13T13:03:15.654Z,17.37
2018-12-13T13:05:42.596Z,17.50
2018-12-13T13:08:09.572Z,20.10
2018-12-13T13:10:36.524Z,16.47
2018-12-13T13:13:03.471Z,16.87
2018-12-13T13:15:30.427Z,20.07
2018-12-13T13:17:57.364Z,20.03
2018-12-13T13:20:24.304Z,16.90
2018-12-13T13:22:51.275Z,18.67
2018-12-13T13:25:18.221Z,17.10
2018-12-13T13:27:45.242Z,17.87
2018-12-13T13:30:12.256Z,16.57
2018-12-13T13:32:39.201Z,16.47
2018-12-13T13:35:06.159Z,16.63
2018-12-13T13:37:33.165Z,20.00
2018-12-13T13:40:00.152Z,16.83
2018-12-13T13:42:27.125Z,18.37
2018-12-13T13:45:00.933Z,17.00
2018-12-13T13:47:27.872Z,17.03
2018-12-13T13:49:54.858Z,17.37
2018-12-13T13:52:21.869Z,18.43
2018-12-13T13:54:48.823Z,16.33
2018-12-13T13:57:15.769Z,19.10
2018-12-13T13:59:42.765Z,16.87
2018-12-13T14:02:09.721Z,18.00
2018-12-13T14:04:36.672Z,17.80
2018-12-13T14:07:03.676Z,17.10
2018-12-13T14:09:30.690Z,16.67
2018-12-13T14:11:57.665Z,17.50
2018-12-13T14:14:24.772Z,14.23
2018-12-13T14:16:51.717Z,16.73
2018-12-13T14:19:18.692Z,17.10
2018-12-13T14:21:45.680Z,14.90
2018-12-13T14:24:12.616Z,15.93
2018-12-13T14:26:39.568Z,16.63
2018-12-13T14:29:06.565Z,15.77
2018-12-13T14:31:34.635Z,14.53
2018-12-13T14:34:00.488Z,19.20
2018-12-13T14:36:27.544Z,18.43
2018-12-13T14:38:54.525Z,17.00
2018-12-13T14:41:21.508Z,17.73
2018-12-13T14:43:48.482Z,17.40
2018-12-13T14:46:15.796Z,17.20
2018-12-13T14:48:42.744Z,16.57
2018-12-13T14:51:09.748Z,17.73
2018-12-13T14:53:36.684Z,14.93
2018-12-13T14:56:03.687Z,17.07
2018-12-13T14:58:30.646Z,15.27
2018-12-13T15:00:57.599Z,16.60
2018-12-13T15:03:24.545Z,19.10
2018-12-13T15:05:51.511Z,19.83
2018-12-13T15:08:18.498Z,15.73
2018-12-13T15:10:45.488Z,15.47
2018-12-13T15:13:12.468Z,16.00
2018-12-13T15:15:39.427Z,16.43
2018-12-13T15:18:06.408Z,15.77
2018-12-13T15:20:33.396Z,17.70
2018-12-13T15:23:00.361Z,16.70
2018-12-13T15:25:27.313Z,17.17
2018-12-13T15:27:54.335Z,17.40
2018-12-13T15:30:21.307Z,17.80
2018-12-13T15:32:48.300Z,16.33
2018-12-13T15:35:15.275Z,15.20
2018-12-13T15:37:42.566Z,16.30
2018-12-13T15:40:09.719Z,15.77
2018-12-13T15:42:36.661Z,15.97
2018-12-13T15:45:03.848Z,17.93
2018-12-13T15:47:31.391Z,30.90
2018-12-13T15:49:58.349Z,25.07
2018-12-13T15:52:25.300Z,17.97
2018-12-13T15:54:52.260Z,19.67
2018-12-13T15:57:19.237Z,16.17
2018-12-13T15:59:46.166Z,17.20
2018-12-13T16:02:13.320Z,17.60
2018-12-13T16:04:40.296Z,16.07
2018-12-13T16:07:07.305Z,14.80
2018-12-13T16:09:34.280Z,17.13
2018-12-13T16:12:01.224Z,17.63
2018-12-13T16:14:28.219Z,15.93
2018-12-13T16:16:55.179Z,16.30
2018-12-13T16:19:22.189Z,16.70
2018-12-13T16:21:49.208Z,19.53
2018-12-13T16:24:16.106Z,16.87
2018-12-13T16:26:43.090Z,15.63
2018-12-13T16:29:10.072Z,17.60
2018-12-13T16:31:37.008Z,18.33
2018-12-13T16:34:03.971Z,15.73
2018-12-13T16:36:30.908Z,15.37
2018-12-13T16:38:57.860Z,16.23
2018-12-13T16:41:24.808Z,14.50
2018-12-13T16:43:51.792Z,16.80
2018-12-13T16:46:18.782Z,17.27
2018-12-13T16:48:46.150Z,16.07
2018-12-13T16:51:13.120Z,16.30
2018-12-13T16:53:40.065Z,15.57
2018-12-13T16:56:07.270Z,15.57
2018-12-13T16:58:34.472Z,14.83
2018-12-13T17:01:01.419Z,16.97
2018-12-13T17:03:38.219Z,16.57
2018-12-13T17:06:05.285Z,16.93
2018-12-13T17:08:32.223Z,16.80
2018-12-13T17:10:59.200Z,15.73
2018-12-13T17:13:26.156Z,14.63
2018-12-13T17:15:53.671Z,17.17
2018-12-13T17:18:21.936Z,14.83
2018-12-13T17:20:50.130Z,15.90
2018-12-13T17:23:17.065Z,14.87
2018-12-13T17:25:44.036Z,16.87
2018-12-13T17:28:10.983Z,15.87
2018-12-13T17:30:37.940Z,16.80
2018-12-13T17:33:04.930Z,16.10
2018-12-13T17:35:31.975Z,15.20
2018-12-13T17:37:58.920Z,15.77
2018-12-13T17:40:25.908Z,17.60
2018-12-13T17:42:52.864Z,15.53
2018-12-13T17:45:19.853Z,16.47
2018-12-13T17:47:46.837Z,16.30
2018-12-13T17:50:14.379Z,16.93
2018-12-13T17:52:41.353Z,16.60
2018-12-13T17:55:08.336Z,17.27
2018-12-13T17:57:35.313Z,16.07
2018-12-13T18:00:02.337Z,15.90
2018-12-13T18:02:29.330Z,14.37
2018-12-13T18:04:56.309Z,16.43
2018-12-13T18:07:23.448Z,15.33
2018-12-13T18:09:50.716Z,16.07
2018-12-13T18:12:17.909Z,13.73
2018-12-13T18:14:45.200Z,17.13
2018-12-13T18:17:12.445Z,14.93
2018-12-13T18:19:39.384Z,14.03
2018-12-13T18:22:06.342Z,15.57
2018-12-13T18:24:33.321Z,15.93
2018-12-13T18:27:00.396Z,16.43
2018-12-13T18:29:27.351Z,15.27
2018-12-13T18:31:54.409Z,17.53
2018-12-13T18:34:21.426Z,14.03
2018-12-13T18:36:48.446Z,14.87
2018-12-13T18:39:15.463Z,13.17
2018-12-13T18:41:42.904Z,15.00
2018-12-13T18:44:09.840Z,15.60
2018-12-13T18:46:36.976Z,12.67
2018-12-13T18:49:06.643Z,16.43
2018-12-13T18:51:33.436Z,17.30
2018-12-13T18:54:00.599Z,15.47
2018-12-13T18:56:27.557Z,17.37
2018-12-13T18:58:54.505Z,16.80
2018-12-13T19:01:21.469Z,15.47
2018-12-13T19:03:48.577Z,15.70
2018-12-13T19:06:15.531Z,15.73
2018-12-13T19:08:42.532Z,14.83
2018-12-13T19:11:09.477Z,17.67
2018-12-13T19:13:36.424Z,17.70
2018-12-13T19:16:03.391Z,16.93
2018-12-13T19:18:30.333Z,16.43
2018-12-13T19:20:57.309Z,15.47
2018-12-13T19:23:24.302Z,15.37
2018-12-13T19:25:51.313Z,22.13
2018-12-13T19:28:18.312Z,25.07
2018-12-13T19:30:45.693Z,15.47
2018-12-13T19:33:12.666Z,16.47
2018-12-13T19:35:39.601Z,15.67
2018-12-13T19:38:06.753Z,15.40
2018-12-13T19:40:33.737Z,15.17
2018-12-13T19:43:00.692Z,14.80
2018-12-13T19:45:27.693Z,16.47
2018-12-13T19:47:54.654Z,16.63
2018-12-13T19:50:21.612Z,14.67
2018-12-13T19:52:49.153Z,14.80
2018-12-13T19:55:16.125Z,16.73
2018-12-13T19:57:43.113Z,17.03
2018-12-13T20:00:10.073Z,15.97
2018-12-13T20:02:37.026Z,15.63
2018-12-13T20:05:04.074Z,16.47
2018-12-13T20:07:31.056Z,15.47
2018-12-13T20:09:58.015Z,16.33
2018-12-13T20:12:24.983Z,14.17
2018-12-13T20:14:51.956Z,14.57
2018-12-13T20:17:18.908Z,15.57
2018-12-13T20:19:45.876Z,14.13
2018-12-13T20:22:12.856Z,16.87
2018-12-13T20:24:39.828Z,15.63
2018-12-13T20:27:06.773Z,15.77
2018-12-13T20:29:33.733Z,16.03
2018-12-13T20:32:00.693Z,15.27
2018-12-13T20:34:27.632Z,15.90
2018-12-13T20:36:54.615Z,14.53
2018-12-13T20:39:21.580Z,15.20
2018-12-13T20:41:48.585Z,14.47
2018-12-13T20:44:15.576Z,12.90
2018-12-13T20:46:42.583Z,17.07
2018-12-13T20:49:09.552Z,14.63
2018-12-13T20:51:36.508Z,15.80
2018-12-13T20:54:03.700Z,15.17
2018-12-13T20:56:38.176Z,16.77
2018-12-13T20:59:05.128Z,16.70
2018-12-13T21:01:32.738Z,14.40
2018-12-13T21:04:01.607Z,17.77
2018-12-13T21:06:37.809Z,15.87
2018-12-13T21:09:08.941Z,18.27
2018-12-13T21:11:36.010Z,17.43
2018-12-13T21:14:03.019Z,18.23
2018-12-13T21:16:30.045Z,14.93
2018-12-13T21:18:56.984Z,18.57
2018-12-13T21:21:23.924Z,16.43
2018-12-13T21:23:50.947Z,17.33
2018-12-13T21:26:17.894Z,18.53
2018-12-13T21:28:44.840Z,20.07
2018-12-13T21:31:11.800Z,17.73
2018-12-13T21:33:38.861Z,16.27
2018-12-13T21:36:05.817Z,18.73
2018-12-13T21:38:32.798Z,16.53
2018-12-13T21:40:59.802Z,16.33
2018-12-13T21:43:26.795Z,17.23
2018-12-13T21:45:53.783Z,18.00
2018-12-13T21:48:20.808Z,15.37
2018-12-13T21:50:47.787Z,16.10
2018-12-13T21:53:14.845Z,16.70
2018-12-13T21:55:42.068Z,17.33
2018-12-13T21:58:09.066Z,17.57
2018-12-13T22:00:36.018Z,17.10
2018-12-13T22:03:03.056Z,17.20
2018-12-13T22:05:30.050Z,17.17
2018-12-13T22:07:57.055Z,18.30
2018-12-13T22:10:24.029Z,20.97
2018-12-13T22:12:51.084Z,16.20
2018-12-13T22:15:18.075Z,17.53
2018-12-13T22:17:45.055Z,17.97
2018-12-13T22:20:11.994Z,19.07
2018-12-13T22:22:38.965Z,18.50
2018-12-13T22:25:06.785Z,15.17
2018-12-13T22:27:33.956Z,20.13
2018-12-13T22:30:00.997Z,18.20
2018-12-13T22:32:27.973Z,19.67
2018-12-13T22:34:54.948Z,19.70
2018-12-13T22:37:21.945Z,19.97
2018-12-13T22:39:49.009Z,20.50
2018-12-13T22:42:15.953Z,18.60
2018-12-13T22:44:42.945Z,20.40
2018-12-13T22:47:09.880Z,17.83
2018-12-13T22:49:36.856Z,17.70
2018-12-13T22:52:03.828Z,17.87
2018-12-13T22:54:30.792Z,18.63
2018-12-13T22:56:58.117Z,21.00
2018-12-13T22:59:25.155Z,19.10
2018-12-13T23:01:52.163Z,17.40
2018-12-13T23:04:19.162Z,20.67
2018-12-13T23:06:46.238Z,19.97
2018-12-13T23:09:13.311Z,18.90
2018-12-13T23:11:40.321Z,19.37
2018-12-13T23:14:07.326Z,16.33
2018-12-13T23:16:34.279Z,20.47
2018-12-13T23:19:01.235Z,19.00
2018-12-13T23:21:28.232Z,18.43
2018-12-13T23:23:55.191Z,17.37
2018-12-13T23:26:22.153Z,17.53
2018-12-13T23:28:49.124Z,19.30
2018-12-13T23:31:16.085Z,18.87
2018-12-13T23:33:43.048Z,19.80
2018-12-13T23:36:10.024Z,16.93
2018-12-13T23:38:36.974Z,20.60
2018-12-13T23:41:03.955Z,19.73
2018-12-13T23:43:30.916Z,18.93
2018-12-13T23:45:57.881Z,17.63
2018-12-13T23:48:24.847Z,18.70
2018-12-13T23:50:51.812Z,21.50
2018-12-13T23:53:18.805Z,19.63
2018-12-13T23:55:45.744Z,19.30
2018-12-13T23:58:12.999Z,18.70
